createdAt,value
2022-12-06T00:01:03.168Z,4.0
2022-12-06T00:05:07.966Z,4.0
2022-12-06T00:10:08.058Z,4.0
2022-12-06T00:15:07.874Z,4.0
2022-12-06T00:20:09.046Z,4.0
2022-12-06T00:25:07.837Z,4.0
2022-12-06T00:30:08.610Z,4.0
2022-12-06T00:35:08.398Z,4.0
2022-12-06T00:40:08.215Z,4.0
2022-12-06T00:45:07.936Z,4.0
2022-12-06T00:50:07.717Z,4.0
2022-12-06T00:55:08.520Z,4.0
2022-12-06T01:00:08.283Z,4.0
2022-12-06T01:05:07.809Z,4.0
2022-12-06T01:10:08.616Z,4.0
2022-12-06T01:15:08.365Z,4.0
2022-12-06T01:20:08.143Z,4.0
2022-12-06T01:25:07.896Z,4.0
2022-12-06T01:30:08.691Z,4.0
2022-12-06T01:35:08.514Z,4.0
2022-12-06T01:40:08.918Z,4.0
2022-12-06T01:45:08.723Z,4.0
2022-12-06T01:50:08.501Z,4.0
2022-12-06T01:55:08.267Z,4.0
2022-12-06T02:00:08.032Z,4.0
2022-12-06T02:05:07.860Z,4.0
2022-12-06T02:10:08.637Z,4.0
2022-12-06T02:15:08.416Z,4.0
2022-12-06T02:20:08.187Z,4.0
2022-12-06T02:25:07.959Z,4.0
2022-12-06T02:30:07.732Z,4.3
2022-12-06T02:35:08.534Z,4.0
2022-12-06T02:40:08.305Z,4.0
2022-12-06T02:45:08.153Z,4.0
2022-12-06T02:50:07.931Z,4.0
2022-12-06T02:55:08.706Z,4.0
2022-12-06T03:00:08.479Z,4.3
2022-12-06T03:05:08.300Z,4.3
2022-12-06T03:10:08.073Z,4.3
2022-12-06T03:15:17.861Z,4.0
2022-12-06T03:20:08.663Z,4.3
2022-12-06T03:25:08.462Z,4.0
2022-12-06T03:30:08.224Z,4.3
2022-12-06T03:35:07.987Z,4.0
2022-12-06T03:40:07.751Z,4.0
2022-12-06T03:45:08.543Z,4.0
2022-12-06T03:50:08.325Z,4.3
2022-12-06T03:55:08.069Z,4.3
2022-12-06T04:00:07.826Z,4.0
2022-12-06T04:05:08.601Z,4.3
2022-12-06T04:10:08.361Z,4.3
2022-12-06T04:15:08.108Z,4.3
2022-12-06T04:20:07.888Z,4.3
2022-12-06T04:25:08.653Z,4.3
2022-12-06T04:30:08.460Z,4.3
2022-12-06T04:35:08.297Z,4.3
2022-12-06T04:40:08.068Z,4.3
2022-12-06T04:45:07.836Z,4.3
2022-12-06T04:50:08.629Z,4.0
2022-12-06T04:55:08.416Z,4.0
2022-12-06T05:00:02.808Z,4.3
2022-12-06T05:05:01.968Z,4.3
2022-12-06T05:10:02.359Z,4.3
2022-12-06T05:15:02.529Z,4.3
2022-12-06T05:20:02.656Z,4.0
2022-12-06T05:25:02.574Z,4.0
2022-12-06T05:30:02.662Z,4.0
2022-12-06T05:35:02.659Z,4.0
2022-12-06T05:40:02.989Z,4.0
2022-12-06T05:45:02.085Z,4.0
2022-12-06T05:50:02.259Z,4.0
2022-12-06T05:55:02.403Z,4.0
2022-12-06T06:00:02.582Z,4.0
2022-12-06T06:05:02.651Z,4.0
2022-12-06T06:10:03.532Z,4.0
2022-12-06T06:15:02.442Z,4.0
2022-12-06T06:20:02.741Z,4.0
2022-12-06T06:25:02.795Z,4.0
2022-12-06T06:30:03.300Z,3.7
2022-12-06T06:35:02.469Z,3.7
2022-12-06T06:40:02.919Z,4.0
2022-12-06T06:45:04.043Z,4.0
2022-12-06T06:50:02.600Z,4.0
2022-12-06T06:55:02.719Z,4.0
2022-12-06T07:00:02.983Z,4.0
2022-12-06T07:05:02.006Z,3.7
2022-12-06T07:10:02.162Z,3.7
2022-12-06T07:15:02.319Z,4.0
2022-12-06T07:20:02.520Z,3.7
2022-12-06T07:25:02.544Z,3.7
2022-12-06T07:30:02.753Z,3.7
2022-12-06T07:35:01.881Z,3.7
2022-12-06T07:40:03.065Z,3.7
2022-12-06T07:45:02.946Z,3.7
2022-12-06T07:50:02.394Z,4.0
2022-12-06T07:55:02.566Z,4.0
2022-12-06T08:00:02.938Z,4.0
2022-12-06T08:05:01.931Z,4.0
2022-12-06T08:10:02.050Z,4.0
2022-12-06T08:15:02.070Z,4.0
2022-12-06T08:20:02.374Z,4.0
2022-12-06T08:25:02.470Z,4.0
2022-12-06T08:30:02.768Z,4.3
2022-12-06T08:35:02.773Z,4.0
2022-12-06T08:40:02.962Z,4.3
2022-12-06T08:45:01.940Z,4.3
2022-12-06T08:50:03.181Z,4.5
2022-12-06T08:55:02.356Z,4.5
2022-12-06T09:00:02.756Z,4.5
2022-12-06T09:05:03.093Z,4.5
2022-12-06T09:10:02.385Z,4.5
2022-12-06T09:15:02.481Z,4.5
2022-12-06T09:20:06.148Z,4.8
2022-12-06T09:25:02.532Z,4.8
2022-12-06T09:30:02.962Z,5.0
2022-12-06T09:35:02.032Z,5.0
2022-12-06T09:40:02.162Z,5.0
2022-12-06T09:45:02.177Z,5.0
2022-12-06T09:50:02.493Z,5.0
2022-12-06T09:55:02.608Z,5.0
2022-12-06T10:00:14.590Z,5.0
2022-12-06T10:05:02.617Z,5.0
2022-12-06T10:10:02.939Z,4.5
2022-12-06T10:15:02.245Z,4.5
2022-12-06T10:20:02.489Z,6.0
2022-12-06T10:25:02.541Z,7.1
2022-12-06T10:30:02.692Z,7.1
2022-12-06T10:35:03.039Z,7.5
2022-12-06T10:40:02.631Z,7.4
2022-12-06T10:45:02.752Z,7.4
2022-12-06T10:50:02.756Z,5.9
2022-12-06T10:55:01.781Z,6.0
2022-12-06T11:00:04.260Z,8.0
2022-12-06T11:05:02.628Z,7.9
2022-12-06T11:10:02.887Z,7.9
2022-12-06T11:15:02.049Z,6.6
2022-12-06T11:20:02.272Z,6.6
2022-12-06T11:25:02.310Z,6.1
2022-12-06T11:30:02.619Z,6.0
2022-12-06T11:35:02.857Z,6.0
2022-12-06T11:40:03.030Z,5.9
2022-12-06T11:45:02.313Z,5.9
2022-12-06T11:50:07.989Z,5.9
2022-12-06T11:55:02.330Z,6.0
2022-12-06T12:00:02.632Z,6.0
2022-12-06T12:05:02.754Z,6.0
2022-12-06T12:10:02.822Z,5.9
2022-12-06T12:15:03.266Z,6.0
2022-12-06T12:20:07.826Z,6.0
2022-12-06T12:25:19.620Z,6.0
2022-12-06T12:30:01.918Z,6.4
2022-12-06T12:35:03.014Z,6.4
2022-12-06T12:40:06.078Z,6.6
2022-12-06T12:45:02.388Z,6.6
2022-12-06T12:50:02.589Z,6.6
2022-12-06T12:55:03.207Z,6.6
2022-12-06T13:00:02.332Z,6.6
2022-12-06T13:05:31.254Z,6.6
2022-12-06T13:10:02.077Z,6.6
2022-12-06T13:15:02.235Z,6.6
2022-12-06T13:20:02.405Z,6.5
2022-12-06T13:25:02.626Z,6.5
2022-12-06T13:30:02.913Z,6.5
2022-12-06T13:35:02.569Z,6.5
2022-12-06T13:40:03.176Z,6.5
2022-12-06T13:45:02.244Z,6.5
2022-12-06T13:50:02.855Z,6.5
2022-12-06T13:55:01.870Z,6.5
2022-12-06T14:00:03.395Z,6.4
2022-12-06T14:05:02.861Z,6.4
2022-12-06T14:10:02.427Z,6.4
2022-12-06T14:15:02.698Z,6.4
2022-12-06T14:20:02.972Z,6.4
2022-12-06T14:25:02.370Z,6.4
2022-12-06T14:30:02.622Z,6.4
2022-12-06T14:35:02.860Z,6.4
2022-12-06T14:40:16.907Z,6.1
2022-12-06T14:45:02.967Z,6.1
2022-12-06T14:50:02.101Z,6.0
2022-12-06T14:55:02.384Z,6.0
2022-12-06T15:00:20.688Z,6.0
2022-12-06T15:05:02.079Z,6.0
2022-12-06T15:10:02.330Z,5.9
2022-12-06T15:15:02.403Z,5.9
2022-12-06T15:20:02.664Z,5.9
2022-12-06T15:25:02.812Z,5.9
2022-12-06T15:30:03.134Z,5.8
2022-12-06T15:35:02.465Z,5.8
2022-12-06T15:40:02.655Z,5.8
2022-12-06T15:45:03.166Z,5.8
2022-12-06T15:50:02.361Z,5.8
2022-12-06T15:55:02.689Z,5.5
2022-12-06T16:00:02.823Z,5.5
2022-12-06T16:05:03.116Z,5.5
2022-12-06T16:10:02.255Z,5.5
2022-12-06T16:15:02.314Z,5.5
2022-12-06T16:20:02.342Z,5.5
2022-12-06T16:25:02.473Z,5.4
2022-12-06T16:30:02.647Z,5.4
2022-12-06T16:35:03.057Z,5.4
2022-12-06T16:40:02.124Z,5.4
2022-12-06T16:45:02.482Z,5.4
2022-12-06T16:50:02.619Z,5.4
2022-12-06T16:55:02.808Z,5.4
2022-12-06T17:00:02.003Z,5.4
2022-12-06T17:05:02.656Z,5.4
2022-12-06T17:10:02.835Z,5.4
2022-12-06T17:15:03.189Z,5.4
2022-12-06T17:20:02.406Z,5.4
2022-12-06T17:25:02.588Z,5.4
2022-12-06T17:30:02.795Z,5.4
2022-12-06T17:35:03.029Z,5.4
2022-12-06T17:40:02.001Z,5.4
2022-12-06T17:45:02.352Z,5.4
2022-12-06T17:50:03.164Z,5.4
2022-12-06T17:55:02.507Z,5.4
2022-12-06T18:00:02.585Z,5.3
2022-12-06T18:05:02.742Z,5.3
2022-12-06T18:10:02.862Z,5.3
2022-12-06T18:15:03.338Z,5.3
2022-12-06T18:20:02.467Z,5.3
2022-12-06T18:25:02.797Z,5.0
2022-12-06T18:30:02.451Z,5.0
2022-12-06T18:35:02.851Z,5.0
2022-12-06T18:40:02.011Z,5.0
2022-12-06T18:45:02.561Z,5.0
2022-12-06T18:50:02.548Z,5.0
2022-12-06T18:55:02.830Z,5.0
2022-12-06T19:00:02.322Z,4.8
2022-12-06T19:05:02.843Z,4.8
2022-12-06T19:10:02.081Z,4.8
2022-12-06T19:15:02.243Z,4.5
2022-12-06T19:20:02.397Z,4.5
2022-12-06T19:25:02.618Z,4.5
2022-12-06T19:30:02.593Z,4.5
2022-12-06T19:35:07.995Z,4.5
2022-12-06T19:40:02.650Z,4.5
2022-12-06T19:45:02.884Z,4.5
2022-12-06T19:50:03.327Z,4.5
2022-12-06T19:55:02.599Z,4.8
2022-12-06T20:00:02.968Z,4.8
2022-12-06T20:05:02.182Z,4.5
2022-12-06T20:10:02.528Z,4.5
2022-12-06T20:15:02.739Z,4.5
2022-12-06T20:20:02.765Z,4.5
2022-12-06T20:25:01.756Z,4.5
2022-12-06T20:30:03.002Z,4.5
2022-12-06T20:35:02.616Z,4.5
2022-12-06T20:40:03.039Z,4.5
2022-12-06T20:45:02.129Z,4.5
2022-12-06T20:50:02.568Z,4.5
2022-12-06T20:55:02.790Z,4.5
2022-12-06T21:00:07.289Z,4.5
2022-12-06T21:05:02.780Z,4.5
2022-12-06T21:10:03.007Z,4.5
2022-12-06T21:15:02.081Z,4.5
2022-12-06T21:20:02.420Z,4.5
2022-12-06T21:25:02.510Z,4.5
2022-12-06T21:30:02.860Z,4.3
2022-12-06T21:35:01.965Z,4.3
2022-12-06T21:40:02.065Z,4.0
2022-12-06T21:45:02.128Z,4.0
2022-12-06T21:50:02.358Z,4.0
2022-12-06T21:55:02.498Z,4.0
2022-12-06T22:00:02.601Z,4.0
2022-12-06T22:05:15.449Z,4.0
2022-12-06T22:10:08.259Z,4.0
2022-12-06T22:15:08.022Z,4.0
2022-12-06T22:20:07.797Z,4.0
2022-12-06T22:25:08.602Z,4.0
2022-12-06T22:30:08.356Z,4.0
2022-12-06T22:35:08.155Z,4.0
2022-12-06T22:40:07.959Z,4.0
2022-12-06T22:45:07.715Z,4.0
2022-12-06T22:50:08.513Z,3.7
2022-12-06T22:55:08.320Z,3.7
2022-12-06T23:00:08.149Z,3.7
2022-12-06T23:05:07.912Z,3.7
2022-12-06T23:10:08.699Z,3.7
2022-12-06T23:15:08.461Z,3.7
2022-12-06T23:20:08.238Z,3.7
2022-12-06T23:25:08.047Z,3.7
2022-12-06T23:30:07.820Z,3.7
2022-12-06T23:35:08.619Z,3.7
2022-12-06T23:40:08.403Z,3.7
2022-12-06T23:45:08.154Z,3.7
2022-12-06T23:50:07.898Z,3.7
2022-12-06T23:55:08.665Z,3.7
